createdAt,value
2023-01-18T00:03:42.684Z,44.16
2023-01-18T00:08:44.717Z,43.95
2023-01-18T00:13:48.236Z,43.82
2023-01-18T00:18:52.703Z,43.98
2023-01-18T00:23:56.327Z,43.92
2023-01-18T00:28:58.221Z,43.91
2023-01-18T00:34:00.129Z,43.93
2023-01-18T00:39:02.181Z,44.30
2023-01-18T00:44:04.271Z,43.83
2023-01-18T00:49:06.134Z,44.18
2023-01-18T00:54:08.028Z,44.14
2023-01-18T00:59:09.959Z,43.96
2023-01-18T01:04:30.198Z,43.63
2023-01-18T01:09:32.035Z,43.86
2023-01-18T01:14:55.743Z,43.78
2023-01-18T01:20:16.389Z,44.14
2023-01-18T01:25:37.086Z,43.77
2023-01-18T01:30:39.009Z,44.21
2023-01-18T01:35:41.005Z,44.55
2023-01-18T01:40:42.831Z,43.92
2023-01-18T01:45:44.771Z,44.81
2023-01-18T01:50:46.792Z,45.47
2023-01-18T01:55:48.903Z,45.80
2023-01-18T02:00:51.102Z,45.23
2023-01-18T02:05:59.160Z,45.02
2023-01-18T02:11:01.073Z,44.88
2023-01-18T02:16:14.683Z,45.29
2023-01-18T02:21:23.816Z,45.35
2023-01-18T02:26:47.519Z,46.03
2023-01-18T02:32:02.224Z,46.20
2023-01-18T02:37:24.818Z,45.44
2023-01-18T02:42:47.445Z,45.39
2023-01-18T02:47:50.644Z,45.75
2023-01-18T02:52:53.723Z,45.87
2023-01-18T02:58:03.307Z,46.21
2023-01-18T03:03:07.356Z,46.23
2023-01-18T03:08:22.252Z,46.54
2023-01-18T03:13:31.031Z,46.33
2023-01-18T03:19:01.807Z,46.37
2023-01-18T03:24:07.424Z,46.08
2023-01-18T03:29:29.477Z,46.03
2023-01-18T03:34:37.855Z,46.12
2023-01-18T03:39:44.643Z,45.99
2023-01-18T03:44:58.689Z,45.92
2023-01-18T03:50:01.132Z,46.44
2023-01-18T03:55:06.340Z,46.29
2023-01-18T04:00:09.939Z,46.35
2023-01-18T04:05:15.939Z,46.68
2023-01-18T04:10:17.763Z,47.02
2023-01-18T04:15:20.403Z,46.50
2023-01-18T04:20:23.465Z,46.76
2023-01-18T04:25:25.392Z,46.70
2023-01-18T04:30:27.528Z,46.70
2023-01-18T04:35:29.475Z,46.84
2023-01-18T04:40:31.321Z,47.52
2023-01-18T04:45:33.593Z,47.52
2023-01-18T04:50:38.229Z,47.30
2023-01-18T04:55:40.058Z,47.67
2023-01-18T05:00:41.958Z,47.14
2023-01-18T05:05:43.845Z,47.65
2023-01-18T05:10:45.698Z,48.08
2023-01-18T05:15:48.105Z,48.12
2023-01-18T05:20:50.029Z,48.56
2023-01-18T05:25:58.806Z,48.53
2023-01-18T05:31:00.742Z,48.75
2023-01-18T05:36:02.787Z,49.64
2023-01-18T05:41:04.846Z,49.82
2023-01-18T05:46:06.794Z,49.66
2023-01-18T05:51:11.244Z,49.54
2023-01-18T05:56:13.113Z,49.66
2023-01-18T06:01:14.973Z,50.15
2023-01-18T06:06:16.994Z,50.76
2023-01-18T06:11:18.798Z,51.20
2023-01-18T06:16:20.711Z,50.64
2023-01-18T06:21:22.611Z,50.97
2023-01-18T06:26:24.425Z,50.89
2023-01-18T06:31:26.270Z,50.41
2023-01-18T06:36:29.903Z,50.00
2023-01-18T06:41:31.943Z,50.88
2023-01-18T06:46:33.877Z,51.22
2023-01-18T06:51:35.739Z,50.83
2023-01-18T06:56:38.169Z,50.92
2023-01-18T07:01:40.018Z,50.79
2023-01-18T07:06:41.811Z,50.94
2023-01-18T07:11:43.661Z,50.37
2023-01-18T07:16:45.535Z,50.71
2023-01-18T07:21:47.511Z,50.78
2023-01-18T07:26:49.547Z,51.01
2023-01-18T07:31:51.705Z,51.19
2023-01-18T07:36:54.481Z,50.82
2023-01-18T07:41:56.364Z,50.93
2023-01-18T07:46:58.672Z,50.90
2023-01-18T07:52:00.619Z,50.77
2023-01-18T07:57:02.449Z,51.43
2023-01-18T08:02:04.496Z,51.21
2023-01-18T08:07:06.483Z,51.34
2023-01-18T08:12:11.522Z,51.25
2023-01-18T08:17:13.362Z,51.02
2023-01-18T08:22:15.218Z,50.89
2023-01-18T08:27:17.041Z,51.44
2023-01-18T08:32:19.215Z,51.49
2023-01-18T08:37:23.832Z,51.44
2023-01-18T08:42:26.638Z,51.43
2023-01-18T08:47:28.520Z,50.90
2023-01-18T08:52:30.399Z,51.35
2023-01-18T08:57:32.797Z,51.21
2023-01-18T09:02:34.699Z,51.06
2023-01-18T09:07:36.903Z,51.72
2023-01-18T09:12:39.054Z,51.61
2023-01-18T09:17:40.914Z,51.44
2023-01-18T09:22:44.661Z,50.92
2023-01-18T09:27:46.780Z,51.14
2023-01-18T09:32:48.641Z,51.43
2023-01-18T09:37:51.128Z,51.51
2023-01-18T09:42:53.433Z,51.61
2023-01-18T09:48:05.730Z,51.50
2023-01-18T09:53:21.108Z,51.64
2023-01-18T09:58:44.728Z,51.97
2023-01-18T10:03:57.970Z,51.39
2023-01-18T10:09:06.984Z,51.88
2023-01-18T10:14:18.215Z,51.78
2023-01-18T10:19:27.577Z,51.48
2023-01-18T10:24:42.768Z,51.52
2023-01-18T10:30:06.843Z,51.63
2023-01-18T10:35:26.314Z,52.48
2023-01-18T10:40:28.175Z,52.18
2023-01-18T10:45:34.212Z,52.09
2023-01-18T10:50:39.938Z,51.63
2023-01-18T10:55:51.373Z,52.10
2023-01-18T11:00:55.184Z,52.04
2023-01-18T11:06:05.311Z,52.15
2023-01-18T11:11:15.244Z,52.30
2023-01-18T11:16:20.987Z,51.76
2023-01-18T11:21:23.845Z,51.94
2023-01-18T11:26:26.141Z,52.14
2023-01-18T11:31:31.458Z,52.13
2023-01-18T11:36:35.286Z,52.83
2023-01-18T11:41:37.147Z,52.55
2023-01-18T11:46:48.339Z,52.76
2023-01-18T11:51:50.130Z,53.09
2023-01-18T11:56:55.987Z,53.09
2023-01-18T12:02:25.679Z,53.17
2023-01-18T12:07:50.498Z,53.23
2023-01-18T12:12:55.394Z,52.49
2023-01-18T12:18:19.487Z,52.82
2023-01-18T12:24:09.016Z,53.47
2023-01-18T12:29:45.884Z,53.48
2023-01-18T12:35:22.643Z,53.20
2023-01-18T12:41:12.002Z,53.11
2023-01-18T12:46:20.739Z,53.95
2023-01-18T12:51:25.714Z,53.88
2023-01-18T12:56:39.569Z,53.68
2023-01-18T13:01:52.080Z,54.31
2023-01-18T13:06:59.467Z,54.19
2023-01-18T13:12:05.213Z,53.77
2023-01-18T13:17:26.195Z,54.47
2023-01-18T13:22:54.195Z,54.13
2023-01-18T13:28:23.448Z,54.64
2023-01-18T13:33:28.112Z,53.77
2023-01-18T13:38:41.388Z,53.82
2023-01-18T13:43:44.129Z,54.58
2023-01-18T13:49:02.522Z,54.45
2023-01-18T13:54:04.479Z,54.59
2023-01-18T13:59:12.268Z,55.03
2023-01-18T14:04:33.613Z,55.25
2023-01-18T14:09:48.418Z,55.55
2023-01-18T14:14:59.464Z,55.54
2023-01-18T14:20:20.065Z,55.03
2023-01-18T14:25:33.351Z,55.26
2023-01-18T14:30:38.663Z,54.84
2023-01-18T14:35:51.957Z,55.81
2023-01-18T14:40:58.057Z,55.92
2023-01-18T14:46:05.163Z,55.91
2023-01-18T14:51:07.232Z,55.81
2023-01-18T14:56:20.141Z,55.73
2023-01-18T15:01:37.142Z,56.06
2023-01-18T15:06:46.795Z,55.96
2023-01-18T15:11:50.831Z,55.96
2023-01-18T15:16:55.280Z,55.82
2023-01-18T15:22:00.538Z,55.64
2023-01-18T15:27:03.412Z,55.99
2023-01-18T15:32:08.519Z,56.63
2023-01-18T15:37:32.614Z,56.56
2023-01-18T15:42:47.781Z,57.04
2023-01-18T15:47:59.826Z,57.31
2023-01-18T15:53:12.343Z,56.69
2023-01-18T15:58:27.530Z,56.54
2023-01-18T16:03:39.592Z,57.24
2023-01-18T16:08:59.607Z,57.61
2023-01-18T16:14:02.504Z,57.30
2023-01-18T16:19:08.062Z,57.42
2023-01-18T16:24:38.874Z,56.80
2023-01-18T16:29:58.433Z,56.76
2023-01-18T16:35:01.862Z,56.87
2023-01-18T16:40:06.324Z,56.38
2023-01-18T16:45:14.310Z,57.32
2023-01-18T16:50:17.961Z,57.80
2023-01-18T16:55:20.040Z,56.90
2023-01-18T17:00:30.911Z,57.01
2023-01-18T17:05:32.963Z,57.20
2023-01-18T17:10:40.132Z,57.22
2023-01-18T17:15:44.006Z,56.67
2023-01-18T17:20:45.899Z,56.53
2023-01-18T17:25:48.124Z,57.12
2023-01-18T17:30:50.341Z,57.58
2023-01-18T17:35:53.735Z,57.59
2023-01-18T17:40:55.676Z,57.38
2023-01-18T17:46:01.444Z,57.81
2023-01-18T17:51:12.811Z,57.74
2023-01-18T17:56:18.345Z,57.49
2023-01-18T18:01:20.364Z,57.40
2023-01-18T18:06:30.760Z,58.05
2023-01-18T18:11:33.653Z,57.82
2023-01-18T18:16:42.744Z,57.62
2023-01-18T18:21:47.989Z,57.51
2023-01-18T18:26:49.921Z,57.82
2023-01-18T18:31:52.368Z,57.99
2023-01-18T18:36:54.237Z,58.01
2023-01-18T18:41:56.381Z,57.81
2023-01-18T18:46:58.199Z,58.17
2023-01-18T18:52:00.346Z,58.48
2023-01-18T18:57:03.931Z,58.63
2023-01-18T19:02:06.328Z,59.28
2023-01-18T19:07:08.324Z,58.94
2023-01-18T19:12:10.272Z,59.34
2023-01-18T19:17:18.610Z,59.05
2023-01-18T19:22:27.099Z,59.26
2023-01-18T19:27:28.924Z,59.44
2023-01-18T19:32:30.919Z,59.24
2023-01-18T19:37:33.637Z,58.65
2023-01-18T19:42:35.722Z,58.85
2023-01-18T19:47:37.781Z,59.30
2023-01-18T19:52:40.263Z,58.66
2023-01-18T19:57:42.475Z,58.52
2023-01-18T20:02:44.697Z,58.83
2023-01-18T20:07:46.694Z,58.66
2023-01-18T20:12:50.081Z,59.01
2023-01-18T20:17:52.001Z,58.72
2023-01-18T20:22:53.952Z,58.13
2023-01-18T20:27:55.899Z,58.40
2023-01-18T20:32:58.385Z,58.11
2023-01-18T20:38:00.587Z,58.11
2023-01-18T20:43:03.045Z,57.74
2023-01-18T20:48:06.152Z,58.12
2023-01-18T20:53:08.239Z,57.72
2023-01-18T20:58:10.050Z,57.55
2023-01-18T21:03:13.726Z,57.23
2023-01-18T21:08:17.525Z,57.21
2023-01-18T21:13:19.381Z,57.17
2023-01-18T21:18:22.256Z,57.05
2023-01-18T21:23:28.047Z,56.90
2023-01-18T21:28:29.924Z,57.00
2023-01-18T21:33:32.082Z,57.15
2023-01-18T21:38:34.200Z,57.33
2023-01-18T21:43:54.646Z,56.65
2023-01-18T21:48:56.537Z,56.56
2023-01-18T21:54:16.465Z,57.03
2023-01-18T21:59:18.240Z,56.37
2023-01-18T22:04:38.902Z,56.60
2023-01-18T22:09:42.725Z,57.09
2023-01-18T22:14:45.840Z,57.47
2023-01-18T22:19:48.546Z,57.36
2023-01-18T22:25:15.355Z,57.08
2023-01-18T22:30:17.530Z,57.05
2023-01-18T22:35:19.394Z,56.74
2023-01-18T22:40:21.231Z,56.83
2023-01-18T22:45:23.371Z,56.51
2023-01-18T22:50:25.321Z,56.59
2023-01-18T22:55:27.141Z,56.57
2023-01-18T23:00:29.053Z,56.46
2023-01-18T23:05:30.892Z,56.28
2023-01-18T23:10:33.678Z,56.70
2023-01-18T23:15:54.141Z,56.86
2023-01-18T23:27:43.749Z,56.40
2023-01-18T23:32:45.593Z,56.07
2023-01-18T23:37:47.425Z,56.03
2023-01-18T23:43:07.998Z,55.92
2023-01-18T23:48:34.137Z,55.60
2023-01-18T23:53:54.795Z,55.13
2023-01-18T23:58:57.492Z,55.13
